Time;durP1;ratioP1;P1;durP2;ratioP2;P2;SDS_P1;SDS_P2;PMS_P1;PMS_P2;Temp;Humidity;BMP_temperature;BMP_pressure;BME280_temperature;BME280_humidity;BME280_pressure;Samples;Min_cycle;Max_cycle;Signal;HPM_P1;HPM_P2
2023/10/23 00:01:36;;;;;;;;;;;;;;;-128.00;-1.00;-1.00;133437;1276;1004115;-81
2023/10/23 00:04:39;;;;;;;;;;;;;;;-128.00;-1.00;-1.00;133453;1276;1004234;-81
2023/10/23 00:07:41;;;;;;;;;;;;;;;-128.00;-1.00;-1.00;133446;1276;1004570;-81
2023/10/23 00:10:45;;;;;;;;;;;;;;;-128.00;-1.00;-1.00;133452;1276;1004085;-81
2023/10/23 00:13:49;;;;;;;;;;;;;;;-128.00;-1.00;-1.00;133535;1276;1003678;-81
2023/10/23 00:16:52;;;;;;;;;;;;;;;-128.00;-1.00;-1.00;133424;1276;1004348;-81
2023/10/23 00:19:54;;;;;;;;;;;;;;;-128.00;-1.00;-1.00;133234;1276;1003760;-81
2023/10/23 00:22:57;;;;;;;;;;;;;;;-128.00;-1.00;-1.00;133205;1276;1004962;-80
2023/10/23 00:26:00;;;;;;;;;;;;;;;-128.00;-1.00;-1.00;133329;1276;1004715;-81
2023/10/23 00:29:03;;;;;;;;;;;;;;;-128.00;-1.00;-1.00;133402;1276;1003784;-81
2023/10/23 00:32:05;;;;;;;;;;;;;;;-128.00;-1.00;-1.00;133395;1276;1004465;-81
2023/10/23 00:35:08;;;;;;;;;;;;;;;-128.00;-1.00;-1.00;133419;1276;1004293;-81
2023/10/23 00:38:11;;;;;;;;;;;;;;;-128.00;-1.00;-1.00;133446;1276;1004789;-81
2023/10/23 00:41:15;;;;;;;;;;;;;;;-128.00;-1.00;-1.00;133445;1276;1003582;-81
2023/10/23 00:44:18;;;;;;;;;;;;;;;-128.00;-1.00;-1.00;133462;1276;1004324;-81
2023/10/23 00:47:21;;;;;;;;;;;;;;;-128.00;-1.00;-1.00;133415;1276;1003206;-81
2023/10/23 00:50:23;;;;;;;;;;;;;;;-128.00;-1.00;-1.00;133429;1276;1004455;-81
2023/10/23 00:53:26;;;;;;;;;;;;;;;-128.00;-1.00;-1.00;133384;1276;1004543;-81
2023/10/23 00:56:29;;;;;;;;;;;;;;;-128.00;-1.00;-1.00;133524;1276;1003895;-81
2023/10/23 00:59:31;;;;;;;;;;;;;;;-128.00;-1.00;-1.00;133397;1276;1005466;-81
2023/10/23 01:02:34;;;;;;;;;;;;;;;-128.00;-1.00;-1.00;133483;1276;1005044;-82
2023/10/23 01:05:36;;;;;;;;;;;;;;;-128.00;-1.00;-1.00;133429;1276;1004148;-81
2023/10/23 01:08:39;;;;;;;;;;;;;;;-128.00;-1.00;-1.00;133434;1276;1005000;-82
2023/10/23 01:11:42;;;;;;;;;;;;;;;-128.00;-1.00;-1.00;133390;1276;1004226;-82
2023/10/23 01:14:44;;;;;;;;;;;;;;;-128.00;-1.00;-1.00;133407;1276;1004968;-82
2023/10/23 01:17:46;;;;;;;;;;;;;;;-128.00;-1.00;-1.00;133448;1276;1004113;-82
2023/10/23 01:20:49;;;;;;;;;;;;;;;-128.00;-1.00;-1.00;133329;1276;1004779;-81
2023/10/23 01:23:52;;;;;;;;;;;;;;;-128.00;-1.00;-1.00;133412;1276;1005044;-81
2023/10/23 01:26:55;;;;;;;;;;;;;;;-128.00;-1.00;-1.00;133463;1276;1005245;-82
2023/10/23 01:29:57;;;;;;;;;;;;;;;-128.00;-1.00;-1.00;133387;1276;1003362;-81
2023/10/23 01:33:00;;;;;;;;;;;;;;;-128.00;-1.00;-1.00;133448;1276;1004032;-82
2023/10/23 01:36:03;;;;;;;;;;;;;;;-128.00;-1.00;-1.00;133440;1276;1003768;-81
2023/10/23 01:39:05;;;;;;;;;;;;;;;-128.00;-1.00;-1.00;133392;1276;1004022;-82
2023/10/23 01:42:08;;;;;;;;;;;;;;;-128.00;-1.00;-1.00;133467;1276;1004560;-82
2023/10/23 01:45:10;;;;;;;;;;;;;;;-128.00;-1.00;-1.00;133436;1276;1004605;-82
2023/10/23 01:48:13;;;;;;;;;;;;;;;-128.00;-1.00;-1.00;133478;1276;1003714;-82
2023/10/23 01:51:15;;;;;;;;;;;;;;;-128.00;-1.00;-1.00;133431;1276;1004331;-81
2023/10/23 01:54:17;;;;;;;;;;;;;;;-128.00;-1.00;-1.00;133459;1276;1004208;-81
2023/10/23 01:57:20;;;;;;;;;;;;;;;-128.00;-1.00;-1.00;133384;1276;1004598;-81
2023/10/23 02:00:23;;;;;;;;;;;;;;;-128.00;-1.00;-1.00;133454;1276;1003455;-83
2023/10/23 02:03:26;;;;;;;;;;;;;;;-128.00;-1.00;-1.00;133512;1276;1004705;-81
2023/10/23 02:06:28;;;;;;;;;;;;;;;-128.00;-1.00;-1.00;133452;1276;1003969;-82
2023/10/23 02:09:31;;;;;;;;;;;;;;;-128.00;-1.00;-1.00;133334;1276;1003884;-82
2023/10/23 02:12:41;;;;;;;;;;;;;;;-128.00;-1.00;-1.00;132801;1276;1004888;-82
2023/10/23 02:15:49;;;;;;;;;;;;;;;-128.00;-1.00;-1.00;133502;1276;1004498;-83
2023/10/23 02:18:55;;;;;;;;;;;;;;;-128.00;-1.00;-1.00;133161;1276;1003693;-80
2023/10/23 02:21:57;;;;;;;;;;;;;;;-128.00;-1.00;-1.00;133086;1276;1004394;-83
2023/10/23 02:25:00;;;;;;;;;;;;;;;-128.00;-1.00;-1.00;132761;1276;1004330;-83
2023/10/23 02:28:03;;;;;;;;;;;;;;;-128.00;-1.00;-1.00;132514;1276;1003667;-82
2023/10/23 02:31:06;;;;;;;;;;;;;;;-128.00;-1.00;-1.00;132640;1276;1004479;-83
2023/10/23 02:34:09;;;;;;;;;;;;;;;-128.00;-1.00;-1.00;132664;1276;1004858;-82
2023/10/23 02:37:12;;;;;;;;;;;;;;;-128.00;-1.00;-1.00;133021;1276;1004419;-81
2023/10/23 02:40:15;;;;;;;;;;;;;;;-128.00;-1.00;-1.00;132716;1276;1003767;-84
2023/10/23 02:43:18;;;;;;;;;;;;;;;-128.00;-1.00;-1.00;132980;1276;1004829;-82
2023/10/23 02:46:23;;;;;;;;;;;;;;;-128.00;-1.00;-1.00;133044;1276;1004274;-82
2023/10/23 02:49:30;;;;;;;;;;;;;;;-128.00;-1.00;-1.00;133339;1276;1004936;-82
2023/10/23 02:52:34;;;;;;;;;;;;;;;-128.00;-1.00;-1.00;133257;1276;1004282;-82
2023/10/23 02:55:36;;;;;;;;;;;;;;;-128.00;-1.00;-1.00;133410;1276;1005145;-83
2023/10/23 02:58:39;;;;;;;;;;;;;;;-128.00;-1.00;-1.00;133422;1276;1003925;-82
2023/10/23 03:01:41;;;;;;;;;;;;;;;-128.00;-1.00;-1.00;133435;1276;1004519;-82
2023/10/23 03:04:44;;;;;;;;;;;;;;;-128.00;-1.00;-1.00;133412;1276;1003754;-82
2023/10/23 03:07:46;;;;;;;;;;;;;;;-128.00;-1.00;-1.00;133464;1276;1004253;-82
2023/10/23 03:10:49;;;;;;;;;;;;;;;-128.00;-1.00;-1.00;133484;1276;1004971;-82
2023/10/23 03:13:51;;;;;;;;;;;;;;;-128.00;-1.00;-1.00;133433;1276;1003865;-83
2023/10/23 03:16:54;;;;;;;;;;;;;;;-128.00;-1.00;-1.00;133399;1276;1003702;-82
2023/10/23 03:19:56;;;;;;;;;;;;;;;-128.00;-1.00;-1.00;133183;1276;1004613;-83
2023/10/23 03:22:59;;;;;;;;;;;;;;;-128.00;-1.00;-1.00;133524;1276;1004184;-82
2023/10/23 03:26:02;;;;;;;;;;;;;;;-128.00;-1.00;-1.00;133381;1276;1003901;-83
2023/10/23 03:29:04;;;;;;;;;;;;;;;-128.00;-1.00;-1.00;133365;1276;1004283;-82
2023/10/23 03:32:07;;;;;;;;;;;;;;;-128.00;-1.00;-1.00;133288;1276;1004905;-79
2023/10/23 03:35:09;;;;;;;;;;;;;;;-128.00;-1.00;-1.00;133272;1276;1004639;-80
2023/10/23 03:38:12;;;;;;;;;;;;;;;-128.00;-1.00;-1.00;133463;1276;1003649;-81
2023/10/23 03:41:15;;;;;;;;;;;;;;;-128.00;-1.00;-1.00;133500;1276;1004113;-82
2023/10/23 03:44:17;;;;;;;;;;;;;;;-128.00;-1.00;-1.00;133457;1276;1004460;-81
2023/10/23 03:47:20;;;;;;;;;;;;;;;-128.00;-1.00;-1.00;133429;1276;1004856;-82
2023/10/23 03:50:22;;;;;;;;;;;;;;;-128.00;-1.00;-1.00;133443;1276;1004215;-83
2023/10/23 03:53:25;;;;;;;;;;;;;;;-128.00;-1.00;-1.00;133467;1276;1003820;-83
2023/10/23 03:56:27;;;;;;;;;;;;;;;-128.00;-1.00;-1.00;133158;1276;1003959;-80
2023/10/23 03:59:30;;;;;;;;;;;;;;;-128.00;-1.00;-1.00;133453;1276;1004935;-79
2023/10/23 04:02:32;;;;;;;;;;;;;;;-128.00;-1.00;-1.00;133233;1276;1004607;-81
2023/10/23 04:05:35;;;;;;;;;;;;;;;-128.00;-1.00;-1.00;133396;1276;1004686;-81
2023/10/23 04:08:38;;;;;;;;;;;;;;;-128.00;-1.00;-1.00;133349;1276;1004606;-82
2023/10/23 04:11:40;;;;;;;;;;;;;;;-128.00;-1.00;-1.00;133398;1276;1004745;-82
2023/10/23 04:14:43;;;;;;;;;;;;;;;-128.00;-1.00;-1.00;133374;1276;1004088;-82
2023/10/23 04:17:46;;;;;;;;;;;;;;;-128.00;-1.00;-1.00;133439;1276;1004014;-82
2023/10/23 04:20:48;;;;;;;;;;;;;;;-128.00;-1.00;-1.00;133419;1276;1005159;-82
2023/10/23 04:23:51;;;;;;;;;;;;;;;-128.00;-1.00;-1.00;133397;1276;1003594;-82
2023/10/23 04:26:53;;;;;;;;;;;;;;;-128.00;-1.00;-1.00;133366;1276;1005282;-82
2023/10/23 04:29:56;;;;;;;;;;;;;;;-128.00;-1.00;-1.00;133333;1276;1004159;-84
2023/10/23 04:32:59;;;;;;;;;;;;;;;-128.00;-1.00;-1.00;133431;1276;1004815;-83
2023/10/23 04:36:02;;;;;;;;;;;;;;;-128.00;-1.00;-1.00;133440;1276;1004390;-83
2023/10/23 04:39:04;;;;;;;;;;;;;;;-128.00;-1.00;-1.00;133393;1276;1004756;-83
2023/10/23 04:42:07;;;;;;;;;;;;;;;-128.00;-1.00;-1.00;133372;1275;1003939;-83
2023/10/23 04:45:13;;;;;;;;;;;;;;;-128.00;-1.00;-1.00;133209;1276;1003794;-81
2023/10/23 04:48:15;;;;;;;;;;;;;;;-128.00;-1.00;-1.00;133484;1276;1004528;-83
2023/10/23 04:51:18;;;;;;;;;;;;;;;-128.00;-1.00;-1.00;133406;1276;1003850;-82
2023/10/23 04:54:21;;;;;;;;;;;;;;;-128.00;-1.00;-1.00;133242;1276;1004420;-82
2023/10/23 04:57:23;;;;;;;;;;;;;;;-128.00;-1.00;-1.00;133445;1276;1004867;-82
2023/10/23 05:00:27;;;;;;;;;;;;;;;-128.00;-1.00;-1.00;133304;1276;1004327;-82
2023/10/23 05:03:31;;;;;;;;;;;;;;;-128.00;-1.00;-1.00;133429;1276;1004399;-81
2023/10/23 05:06:34;;;;;;;;;;;;;;;-128.00;-1.00;-1.00;133306;1273;1004473;-82
2023/10/23 05:09:37;;;;;;;;;;;;;;;-128.00;-1.00;-1.00;133491;1276;1004904;-81
2023/10/23 05:12:42;;;;;;;;;;;;;;;-128.00;-1.00;-1.00;133488;1276;1004528;-81
2023/10/23 05:15:44;;;;;;;;;;;;;;;-128.00;-1.00;-1.00;133443;1276;1003492;-82
2023/10/23 05:18:49;;;;;;;;;;;;;;;-128.00;-1.00;-1.00;133406;1276;1003874;-80
2023/10/23 05:21:52;;;;;;;;;;;;;;;-128.00;-1.00;-1.00;133498;1276;1004649;-80
2023/10/23 05:24:54;;;;;;;;;;;;;;;-128.00;-1.00;-1.00;133413;1276;1003751;-82
2023/10/23 05:27:57;;;;;;;;;;;;;;;-128.00;-1.00;-1.00;133411;1275;1004364;-81
2023/10/23 05:30:59;;;;;;;;;;;;;;;-128.00;-1.00;-1.00;133490;1276;1004676;-82
2023/10/23 05:34:03;;;;;;;;;;;;;;;-128.00;-1.00;-1.00;133435;1276;1003777;-81
2023/10/23 05:37:08;;;;;;;;;;;;;;;-128.00;-1.00;-1.00;133478;1276;1004398;-77
2023/10/23 05:40:11;;;;;;;;;;;;;;;-128.00;-1.00;-1.00;133458;1276;1004938;-81
2023/10/23 05:43:17;;;;;;;;;;;;;;;-128.00;-1.00;-1.00;133483;1276;1005039;-81
2023/10/23 05:46:20;;;;;;;;;;;;;;;-128.00;-1.00;-1.00;133469;1276;1005305;-80
2023/10/23 05:49:23;;;;;;;;;;;;;;;-128.00;-1.00;-1.00;133455;1276;1004593;-81
2023/10/23 05:52:25;;;;;;;;;;;;;;;-128.00;-1.00;-1.00;133442;1276;1004668;-81
2023/10/23 05:55:28;;;;;;;;;;;;;;;-128.00;-1.00;-1.00;133468;1276;1004094;-82
2023/10/23 05:58:30;;;;;;;;;;;;;;;-128.00;-1.00;-1.00;133469;1276;1003809;-81
2023/10/23 06:01:33;;;;;;;;;;;;;;;-128.00;-1.00;-1.00;133430;1276;1004010;-83
2023/10/23 06:04:36;;;;;;;;;;;;;;;-128.00;-1.00;-1.00;133492;1276;1004517;-82
2023/10/23 06:07:38;;;;;;;;;;;;;;;-128.00;-1.00;-1.00;133531;1276;1004194;-80
2023/10/23 06:10:41;;;;;;;;;;;;;;;-128.00;-1.00;-1.00;133551;1276;1003757;-83
2023/10/23 06:13:43;;;;;;;;;;;;;;;-128.00;-1.00;-1.00;133349;1276;1004557;-82
2023/10/23 06:16:46;;;;;;;;;;;;;;;-128.00;-1.00;-1.00;133402;1276;1004136;-81
2023/10/23 06:19:48;;;;;;;;;;;;;;;-128.00;-1.00;-1.00;133479;1276;1005761;-83
2023/10/23 06:22:52;;;;;;;;;;;;;;;-128.00;-1.00;-1.00;133448;1276;1003979;-82
2023/10/23 06:25:54;;;;;;;;;;;;;;;-128.00;-1.00;-1.00;133279;1276;1004833;-79
2023/10/23 06:28:57;;;;;;;;;;;;;;;-128.00;-1.00;-1.00;133469;1276;1007016;-79
2023/10/23 06:31:59;;;;;;;;;;;;;;;-128.00;-1.00;-1.00;133703;1276;1003860;-78
2023/10/23 06:35:04;;;;;;;;;;;;;;;-128.00;-1.00;-1.00;133686;1276;1004694;-79
2023/10/23 06:38:06;;;;;;;;;;;;;;;-128.00;-1.00;-1.00;133667;1276;1004375;-79
2023/10/23 06:41:09;;;;;;;;;;;;;;;-128.00;-1.00;-1.00;133578;1276;1004202;-79
2023/10/23 06:44:11;;;;;;;;;;;;;;;-128.00;-1.00;-1.00;133551;1276;1003743;-80
2023/10/23 06:47:15;;;;;;;;;;;;;;;-128.00;-1.00;-1.00;133351;1276;1004223;-80
2023/10/23 06:50:18;;;;;;;;;;;;;;;-128.00;-1.00;-1.00;133484;1276;1005118;-80
2023/10/23 06:53:20;;;;;;;;;;;;;;;-128.00;-1.00;-1.00;133350;1275;1003972;-80
2023/10/23 06:56:23;;;;;;;;;;;;;;;-128.00;-1.00;-1.00;133431;1276;1003575;-80
2023/10/23 06:59:25;;;;;;;;;;;;;;;-128.00;-1.00;-1.00;133427;1276;1004286;-81
2023/10/23 07:02:28;;;;;;;;;;;;;;;-128.00;-1.00;-1.00;133410;1276;1004003;-78
2023/10/23 07:05:30;;;;;;;;;;;;;;;-128.00;-1.00;-1.00;133403;1276;1004660;-80
2023/10/23 07:08:33;;;;;;;;;;;;;;;-128.00;-1.00;-1.00;133364;1276;1004175;-81
2023/10/23 07:11:38;;;;;;;;;;;;;;;-128.00;-1.00;-1.00;133366;1276;1004856;-80
2023/10/23 07:14:41;;;;;;;;;;;;;;;-128.00;-1.00;-1.00;133399;1275;1004314;-80
2023/10/23 07:17:46;;;;;;;;;;;;;;;-128.00;-1.00;-1.00;133343;1276;1003833;-81
2023/10/23 07:20:49;;;;;;;;;;;;;;;-128.00;-1.00;-1.00;133447;1275;1004705;-81
2023/10/23 07:23:51;;;;;;;;;;;;;;;-128.00;-1.00;-1.00;133394;1276;1004795;-80
2023/10/23 07:26:54;;;;;;;;;;;;;;;-128.00;-1.00;-1.00;133463;1276;1003791;-81
2023/10/23 07:29:56;;;;;;;;;;;;;;;-128.00;-1.00;-1.00;133478;1276;1004453;-81
2023/10/23 07:32:59;;;;;;;;;;;;;;;-128.00;-1.00;-1.00;133314;1276;1004666;-81
2023/10/23 07:36:02;;;;;;;;;;;;;;;-128.00;-1.00;-1.00;133405;1276;1004027;-81
2023/10/23 07:39:04;;;;;;;;;;;;;;;-128.00;-1.00;-1.00;133409;1276;1004618;-80
2023/10/23 07:42:07;;;;;;;;;;;;;;;-128.00;-1.00;-1.00;133403;1276;1004353;-80
2023/10/23 07:45:10;;;;;;;;;;;;;;;-128.00;-1.00;-1.00;133381;1276;1003207;-81
2023/10/23 07:48:13;;;;;;;;;;;;;;;-128.00;-1.00;-1.00;133407;1275;1004038;-81
2023/10/23 07:51:15;;;;;;;;;;;;;;;-128.00;-1.00;-1.00;133392;1276;1004585;-81
2023/10/23 07:54:18;;;;;;;;;;;;;;;-128.00;-1.00;-1.00;133418;1276;1004333;-82
2023/10/23 07:57:21;;;;;;;;;;;;;;;-128.00;-1.00;-1.00;133413;1276;1004699;-81
2023/10/23 08:00:23;;;;;;;;;;;;;;;-128.00;-1.00;-1.00;133428;1276;1003614;-82
2023/10/23 08:03:26;;;;;;;;;;;;;;;-128.00;-1.00;-1.00;133331;1276;1004108;-81
2023/10/23 08:06:28;;;;;;;;;;;;;;;-128.00;-1.00;-1.00;133431;1276;1003505;-82
2023/10/23 08:09:31;;;;;;;;;;;;;;;-128.00;-1.00;-1.00;133409;1276;1004086;-82
2023/10/23 08:12:33;;;;;;;;;;;;;;;-128.00;-1.00;-1.00;133441;1276;1004155;-80
2023/10/23 08:15:38;;;;;;;;;;;;;;;-128.00;-1.00;-1.00;133408;1276;1004929;-80
2023/10/23 08:18:41;;;;;;;;;;;;;;;-128.00;-1.00;-1.00;133374;1276;1003557;-81
2023/10/23 08:21:43;;;;;;;;;;;;;;;-128.00;-1.00;-1.00;133421;1276;1004846;-82
2023/10/23 08:24:46;;;;;;;;;;;;;;;-128.00;-1.00;-1.00;133452;1276;1004911;-82
2023/10/23 08:27:48;;;;;;;;;;;;;;;-128.00;-1.00;-1.00;133472;1276;1004541;-80
2023/10/23 08:30:51;;;;;;;;;;;;;;;-128.00;-1.00;-1.00;133430;1276;1004538;-81
2023/10/23 08:33:53;;;;;;;;;;;;;;;-128.00;-1.00;-1.00;133412;1276;1003874;-81
2023/10/23 08:36:56;;;;;;;;;;;;;;;-128.00;-1.00;-1.00;133369;1276;1005403;-81
2023/10/23 08:39:58;;;;;;;;;;;;;;;-128.00;-1.00;-1.00;133413;1276;1004306;-81
2023/10/23 08:43:01;;;;;;;;;;;;;;;-128.00;-1.00;-1.00;133416;1276;1004100;-81
2023/10/23 08:46:04;;;;;;;;;;;;;;;-128.00;-1.00;-1.00;133356;1276;1004563;-80
2023/10/23 08:49:06;;;;;;;;;;;;;;;-128.00;-1.00;-1.00;133441;1276;1004492;-80
2023/10/23 08:52:09;;;;;;;;;;;;;;;-128.00;-1.00;-1.00;133393;1276;1004478;-81
2023/10/23 08:55:11;;;;;;;;;;;;;;;-128.00;-1.00;-1.00;133326;1276;1003598;-81
2023/10/23 08:58:13;;;;;;;;;;;;;;;-128.00;-1.00;-1.00;133399;1276;1004253;-79
2023/10/23 09:01:16;;;;;;;;;;;;;;;-128.00;-1.00;-1.00;133337;1276;1004297;-81
2023/10/23 09:04:18;;;;;;;;;;;;;;;-128.00;-1.00;-1.00;133421;1276;1005098;-81
2023/10/23 09:07:21;;;;;;;;;;;;;;;-128.00;-1.00;-1.00;133411;1276;1004965;-81
2023/10/23 09:10:23;;;;;;;;;;;;;;;-128.00;-1.00;-1.00;133397;1276;1004036;-82
2023/10/23 09:13:26;;;;;;;;;;;;;;;-128.00;-1.00;-1.00;133386;1276;1004226;-81
2023/10/23 09:16:28;;;;;;;;;;;;;;;-128.00;-1.00;-1.00;133386;1276;1003942;-81
2023/10/23 09:19:34;;;;;;;;;;;;;;;-128.00;-1.00;-1.00;133410;1276;1004252;-82
2023/10/23 09:22:36;;;;;;;;;;;;;;;-128.00;-1.00;-1.00;133381;1276;1004302;-81
2023/10/23 09:25:39;;;;;;;;;;;;;;;-128.00;-1.00;-1.00;133473;1276;1004015;-82
2023/10/23 09:28:41;;;;;;;;;;;;;;;-128.00;-1.00;-1.00;133392;1276;1004984;-81
2023/10/23 09:31:44;;;;;;;;;;;;;;;-128.00;-1.00;-1.00;133405;1276;1003807;-82
2023/10/23 09:34:46;;;;;;;;;;;;;;;-128.00;-1.00;-1.00;133362;1276;1004587;-81
2023/10/23 09:37:49;;;;;;;;;;;;;;;-128.00;-1.00;-1.00;133425;1276;1003762;-82
2023/10/23 09:40:51;;;;;;;;;;;;;;;-128.00;-1.00;-1.00;133415;1276;1004158;-80
2023/10/23 09:43:54;;;;;;;;;;;;;;;-128.00;-1.00;-1.00;133463;1276;1004946;-81
2023/10/23 09:46:57;;;;;;;;;;;;;;;-128.00;-1.00;-1.00;133423;1276;1005164;-82
2023/10/23 09:50:01;;;;;;;;;;;;;;;-128.00;-1.00;-1.00;133436;1276;1004891;-82
2023/10/23 09:53:05;;;;;;;;;;;;;;;-128.00;-1.00;-1.00;133462;1276;1004461;-82
2023/10/23 09:56:08;;;;;;;;;;;;;;;-128.00;-1.00;-1.00;133457;1276;1004293;-82
2023/10/23 09:59:11;;;;;;;;;;;;;;;-128.00;-1.00;-1.00;133435;1276;1005316;-78
2023/10/23 10:02:13;;;;;;;;;;;;;;;-128.00;-1.00;-1.00;133352;1276;1003497;-83
2023/10/23 10:05:16;;;;;;;;;;;;;;;-128.00;-1.00;-1.00;133208;1276;1004274;-82
2023/10/23 10:08:21;;;;;;;;;;;;;;;-128.00;-1.00;-1.00;133408;1276;1004741;-80
2023/10/23 10:11:25;;;;;;;;;;;;;;;-128.00;-1.00;-1.00;133422;1276;1004381;-82
2023/10/23 10:14:28;;;;;;;;;;;;;;;-128.00;-1.00;-1.00;133482;1276;1004273;-82
2023/10/23 10:17:30;;;;;;;;;;;;;;;-128.00;-1.00;-1.00;133623;1276;1004536;-80
2023/10/23 10:20:33;;;;;;;;;;;;;;;-128.00;-1.00;-1.00;133538;1276;1004496;-78
2023/10/23 10:23:36;;;;;;;;;;;;;;;-128.00;-1.00;-1.00;133349;1276;1004712;-80
2023/10/23 10:26:38;;;;;;;;;;;;;;;-128.00;-1.00;-1.00;133260;1276;1004115;-80
2023/10/23 10:29:41;;;;;;;;;;;;;;;-128.00;-1.00;-1.00;133034;1276;1004851;-79
2023/10/23 10:32:45;;;;;;;;;;;;;;;-128.00;-1.00;-1.00;133432;1276;1004129;-79
2023/10/23 10:35:48;;;;;;;;;;;;;;;-128.00;-1.00;-1.00;133572;1276;1005023;-80
2023/10/23 10:38:51;;;;;;;;;;;;;;;-128.00;-1.00;-1.00;133585;1276;1004193;-80
2023/10/23 10:41:57;;;;;;;;;;;;;;;-128.00;-1.00;-1.00;133493;1276;1004747;-81
2023/10/23 10:45:00;;;;;;;;;;;;;;;-128.00;-1.00;-1.00;133497;1276;1004578;-80
2023/10/23 10:48:02;;;;;;;;;;;;;;;-128.00;-1.00;-1.00;133397;1276;1003521;-81
2023/10/23 10:51:05;;;;;;;;;;;;;;;-128.00;-1.00;-1.00;133469;1276;1004380;-81
2023/10/23 10:54:07;;;;;;;;;;;;;;;-128.00;-1.00;-1.00;133435;1276;1004410;-82
2023/10/23 10:57:10;;;;;;;;;;;;;;;-128.00;-1.00;-1.00;133430;1276;1004602;-82
2023/10/23 11:00:13;;;;;;;;;;;;;;;-128.00;-1.00;-1.00;133379;1276;1004884;-81
2023/10/23 11:03:15;;;;;;;;;;;;;;;-128.00;-1.00;-1.00;133440;1276;1004454;-81
2023/10/23 11:06:18;;;;;;;;;;;;;;;-128.00;-1.00;-1.00;133464;1276;1004612;-83
2023/10/23 11:09:20;;;;;;;;;;;;;;;-128.00;-1.00;-1.00;133192;1276;1004909;-81
2023/10/23 11:12:24;;;;;;;;;;;;;;;-128.00;-1.00;-1.00;133470;1276;1003752;-82
2023/10/23 11:15:27;;;;;;;;;;;;;;;-128.00;-1.00;-1.00;133443;1276;1004329;-81
2023/10/23 11:18:29;;;;;;;;;;;;;;;-128.00;-1.00;-1.00;133471;1276;1004195;-81
2023/10/23 11:21:32;;;;;;;;;;;;;;;-128.00;-1.00;-1.00;133491;1276;1004532;-82
2023/10/23 11:24:35;;;;;;;;;;;;;;;-128.00;-1.00;-1.00;133432;1276;1004454;-83
2023/10/23 11:27:37;;;;;;;;;;;;;;;-128.00;-1.00;-1.00;133411;1276;1004206;-81
2023/10/23 11:30:40;;;;;;;;;;;;;;;-128.00;-1.00;-1.00;133447;1276;1004508;-82
2023/10/23 11:33:42;;;;;;;;;;;;;;;-128.00;-1.00;-1.00;133441;1276;1004693;-81
2023/10/23 11:36:45;;;;;;;;;;;;;;;-128.00;-1.00;-1.00;133395;1276;1004207;-82
2023/10/23 11:39:47;;;;;;;;;;;;;;;-128.00;-1.00;-1.00;133445;1276;1004030;-82
2023/10/23 11:42:50;;;;;;;;;;;;;;;-128.00;-1.00;-1.00;133415;1276;1004421;-82
2023/10/23 11:45:52;;;;;;;;;;;;;;;-128.00;-1.00;-1.00;133461;1276;1004452;-82
2023/10/23 11:48:55;;;;;;;;;;;;;;;-128.00;-1.00;-1.00;133356;1276;1004973;-83
2023/10/23 11:51:59;;;;;;;;;;;;;;;-128.00;-1.00;-1.00;133404;1276;1003465;-82
2023/10/23 11:55:01;;;;;;;;;;;;;;;-128.00;-1.00;-1.00;133462;1276;1004724;-83
2023/10/23 11:58:04;;;;;;;;;;;;;;;-128.00;-1.00;-1.00;133462;1276;1004058;-82
2023/10/23 12:01:08;;;;;;;;;;;;;;;-128.00;-1.00;-1.00;133405;1276;1005042;-82
2023/10/23 12:04:12;;;;;;;;;;;;;;;-128.00;-1.00;-1.00;133484;1276;1004684;-82
2023/10/23 12:07:15;;;;;;;;;;;;;;;-128.00;-1.00;-1.00;133407;1276;1004801;-81
2023/10/23 12:10:17;;;;;;;;;;;;;;;-128.00;-1.00;-1.00;133429;1276;1004332;-82
2023/10/23 12:13:20;;;;;;;;;;;;;;;-128.00;-1.00;-1.00;133377;1276;1003462;-82
2023/10/23 12:16:22;;;;;;;;;;;;;;;-128.00;-1.00;-1.00;133375;1276;1004533;-82
2023/10/23 12:19:25;;;;;;;;;;;;;;;-128.00;-1.00;-1.00;133433;1276;1003724;-81
2023/10/23 12:22:27;;;;;;;;;;;;;;;-128.00;-1.00;-1.00;133403;1276;1004055;-81
2023/10/23 12:25:30;;;;;;;;;;;;;;;-128.00;-1.00;-1.00;133352;1276;1003398;-82
2023/10/23 12:28:33;;;;;;;;;;;;;;;-128.00;-1.00;-1.00;133347;1276;1005227;-83
2023/10/23 12:31:36;;;;;;;;;;;;;;;-128.00;-1.00;-1.00;133360;1276;1005312;-81
2023/10/23 12:34:38;;;;;;;;;;;;;;;-128.00;-1.00;-1.00;133388;1276;1004702;-80
2023/10/23 12:37:41;;;;;;;;;;;;;;;-128.00;-1.00;-1.00;133190;1276;1004705;-82
2023/10/23 12:40:44;;;;;;;;;;;;;;;-128.00;-1.00;-1.00;133393;1276;1003650;-84
2023/10/23 12:43:47;;;;;;;;;;;;;;;-128.00;-1.00;-1.00;133502;1276;1003756;-82
2023/10/23 12:46:49;;;;;;;;;;;;;;;-128.00;-1.00;-1.00;133478;1276;1004255;-83
2023/10/23 12:49:52;;;;;;;;;;;;;;;-128.00;-1.00;-1.00;133460;1276;1004185;-84
2023/10/23 12:52:54;;;;;;;;;;;;;;;-128.00;-1.00;-1.00;133532;1276;1004905;-83
2023/10/23 12:55:57;;;;;;;;;;;;;;;-128.00;-1.00;-1.00;133547;1276;1003361;-84
2023/10/23 12:58:59;;;;;;;;;;;;;;;-128.00;-1.00;-1.00;133517;1276;1003917;-82
2023/10/23 13:02:02;;;;;;;;;;;;;;;-128.00;-1.00;-1.00;133432;1276;1004898;-85
2023/10/23 13:05:05;;;;;;;;;;;;;;;-128.00;-1.00;-1.00;133472;1276;1004078;-80
2023/10/23 13:08:07;;;;;;;;;;;;;;;-128.00;-1.00;-1.00;133374;1276;1004564;-83
2023/10/23 13:11:10;;;;;;;;;;;;;;;-128.00;-1.00;-1.00;133360;1276;1004609;-85
2023/10/23 13:14:12;;;;;;;;;;;;;;;-128.00;-1.00;-1.00;133425;1276;1004997;-82
2023/10/23 13:17:15;;;;;;;;;;;;;;;-128.00;-1.00;-1.00;133406;1276;1004196;-82
2023/10/23 13:20:17;;;;;;;;;;;;;;;-128.00;-1.00;-1.00;133406;1276;1004609;-83
2023/10/23 13:23:23;;;;;;;;;;;;;;;-128.00;-1.00;-1.00;133391;1276;1004890;-82
2023/10/23 13:26:25;;;;;;;;;;;;;;;-128.00;-1.00;-1.00;133413;1276;1005384;-82
2023/10/23 13:29:31;;;;;;;;;;;;;;;-128.00;-1.00;-1.00;133389;1276;1004515;-83
2023/10/23 13:32:34;;;;;;;;;;;;;;;-128.00;-1.00;-1.00;133397;1276;1004829;-82
2023/10/23 13:35:37;;;;;;;;;;;;;;;-128.00;-1.00;-1.00;133414;1276;1003751;-80
2023/10/23 13:38:39;;;;;;;;;;;;;;;-128.00;-1.00;-1.00;133372;1276;1004586;-83
2023/10/23 13:41:42;;;;;;;;;;;;;;;-128.00;-1.00;-1.00;133360;1276;1004901;-84
2023/10/23 13:44:44;;;;;;;;;;;;;;;-128.00;-1.00;-1.00;133465;1276;1004266;-83
2023/10/23 13:47:46;;;;;;;;;;;;;;;-128.00;-1.00;-1.00;133426;1276;1004374;-85
2023/10/23 13:50:52;;;;;;;;;;;;;;;-128.00;-1.00;-1.00;133482;1276;1003777;-84
2023/10/23 13:53:55;;;;;;;;;;;;;;;-128.00;-1.00;-1.00;133436;1276;1003483;-85
2023/10/23 13:56:57;;;;;;;;;;;;;;;-128.00;-1.00;-1.00;133376;1276;1004572;-82
2023/10/23 13:59:59;;;;;;;;;;;;;;;-128.00;-1.00;-1.00;133397;1276;1003980;-84
2023/10/23 14:03:02;;;;;;;;;;;;;;;-128.00;-1.00;-1.00;133465;1276;1004661;-84
2023/10/23 14:06:05;;;;;;;;;;;;;;;-128.00;-1.00;-1.00;133469;1276;1004286;-84
2023/10/23 14:09:08;;;;;;;;;;;;;;;-128.00;-1.00;-1.00;133454;1276;1004568;-84
2023/10/23 14:12:11;;;;;;;;;;;;;;;-128.00;-1.00;-1.00;133419;1276;1005462;-83
2023/10/23 14:15:13;;;;;;;;;;;;;;;-128.00;-1.00;-1.00;133419;1276;1003601;-84
2023/10/23 14:18:16;;;;;;;;;;;;;;;-128.00;-1.00;-1.00;133483;1276;1003783;-84
2023/10/23 14:21:18;;;;;;;;;;;;;;;-128.00;-1.00;-1.00;133448;1276;1005081;-84
2023/10/23 14:24:24;;;;;;;;;;;;;;;-128.00;-1.00;-1.00;133450;1276;1004666;-85
2023/10/23 14:27:27;;;;;;;;;;;;;;;-128.00;-1.00;-1.00;133456;1276;1004417;-83
2023/10/23 14:30:30;;;;;;;;;;;;;;;-128.00;-1.00;-1.00;133332;1276;1004443;-84
2023/10/23 14:33:32;;;;;;;;;;;;;;;-128.00;-1.00;-1.00;133438;1276;1004969;-84
2023/10/23 14:36:35;;;;;;;;;;;;;;;-128.00;-1.00;-1.00;133354;1276;1004958;-84
2023/10/23 14:39:37;;;;;;;;;;;;;;;-128.00;-1.00;-1.00;133427;1276;1004389;-83
2023/10/23 14:42:40;;;;;;;;;;;;;;;-128.00;-1.00;-1.00;133449;1276;1005089;-83
2023/10/23 14:45:42;;;;;;;;;;;;;;;-128.00;-1.00;-1.00;133393;1276;1003564;-82
2023/10/23 14:48:46;;;;;;;;;;;;;;;-128.00;-1.00;-1.00;133365;1276;1004721;-84
2023/10/23 14:51:49;;;;;;;;;;;;;;;-128.00;-1.00;-1.00;133457;1276;1004591;-84
2023/10/23 14:55:00;;;;;;;;;;;;;;;-128.00;-1.00;-1.00;133534;1276;1004382;-84
2023/10/23 14:58:03;;;;;;;;;;;;;;;-128.00;-1.00;-1.00;133304;1276;1003910;-85
2023/10/23 15:01:08;;;;;;;;;;;;;;;-128.00;-1.00;-1.00;133313;1276;1004545;-84
2023/10/23 15:04:11;;;;;;;;;;;;;;;-128.00;-1.00;-1.00;133463;1276;1004551;-85
2023/10/23 15:07:14;;;;;;;;;;;;;;;-128.00;-1.00;-1.00;133394;1276;1003647;-83
2023/10/23 15:10:18;;;;;;;;;;;;;;;-128.00;-1.00;-1.00;133414;1276;1003505;-86
2023/10/23 15:13:22;;;;;;;;;;;;;;;-128.00;-1.00;-1.00;133363;1276;1004613;-84
2023/10/23 15:16:25;;;;;;;;;;;;;;;-128.00;-1.00;-1.00;133408;1276;1004513;-84
2023/10/23 15:19:28;;;;;;;;;;;;;;;-128.00;-1.00;-1.00;132964;1276;1005243;-85
2023/10/23 15:22:31;;;;;;;;;;;;;;;-128.00;-1.00;-1.00;133145;1276;1004664;-84
2023/10/23 15:25:34;;;;;;;;;;;;;;;-128.00;-1.00;-1.00;133467;1276;1004275;-83
2023/10/23 15:28:38;;;;;;;;;;;;;;;-128.00;-1.00;-1.00;133514;1276;1003719;-84